Time;durP1;ratioP1;P1;durP2;ratioP2;P2;SDS_P1;SDS_P2;PMS_P1;PMS_P2;Temp;Humidity;BMP_temperature;BMP_pressure;BME280_temperature;BME280_humidity;BME280_pressure;Samples;Min_cycle;Max_cycle;Signal;HPM_P1;HPM_P2
2021/03/27 00:01:08;;;;;;;15.27;9.95;;;;;;;9.13;91.12;100734.19;4985917;28;20498;-77
2021/03/27 00:03:44;;;;;;;15.20;9.75;;;;;;;9.00;91.54;100753.72;4990747;28;20029;-76
2021/03/27 00:06:14;;;;;;;18.45;9.38;;;;;;;8.99;91.23;100766.25;4986007;28;20451;-76
2021/03/27 00:08:50;;;;;;;14.77;9.65;;;;;;;9.01;90.80;100769.69;4976214;28;20055;-75
2021/03/27 00:11:44;;;;;;;16.10;9.50;;;;;;;8.85;93.19;100783.09;4975548;28;20041;-76
2021/03/27 00:14:15;;;;;;;15.68;10.35;;;;;;;8.76;93.95;100802.34;4983677;28;20041;-76
2021/03/27 00:16:59;;;;;;;21.25;10.13;;;;;;;8.78;95.60;100826.31;4988001;28;20488;-76
2021/03/27 00:19:37;;;;;;;17.85;9.68;;;;;;;8.70;96.13;100834.78;4985128;28;20080;-76
2021/03/27 00:22:09;;;;;;;17.23;9.77;;;;;;;8.65;98.03;100834.16;4988150;28;20034;-75
2021/03/27 00:25:16;;;;;;;16.35;9.40;;;;;;;8.46;99.11;100841.44;4970792;28;20406;-75
2021/03/27 00:27:47;;;;;;;15.50;8.93;;;;;;;8.38;100.00;100841.88;4973940;28;20140;-75
2021/03/27 00:30:22;;;;;;;12.82;8.65;;;;;;;8.31;100.00;100843.16;4966698;28;20049;-77
2021/03/27 00:32:50;;;;;;;11.93;6.88;;;;;;;8.20;98.85;100836.63;4970854;28;20065;-76
2021/03/27 00:35:28;;;;;;;12.10;6.57;;;;;;;8.03;99.38;100835.66;4982071;28;20109;-74
2021/03/27 00:37:58;;;;;;;7.30;5.15;;;;;;;7.94;99.02;100838.84;4994939;28;20529;-77
2021/03/27 00:40:27;;;;;;;9.57;5.95;;;;;;;7.82;99.87;100831.44;4983839;28;20069;-76
2021/03/27 00:43:27;;;;;;;10.25;5.72;;;;;;;7.82;100.00;100839.47;4989735;28;20070;-76
2021/03/27 00:46:00;;;;;;;12.73;6.85;;;;;;;7.82;100.00;100839.47;4985272;28;20077;-77
2021/03/27 00:48:35;;;;;;;11.43;6.85;;;;;;;7.90;100.00;100845.25;4962029;28;20044;-77
2021/03/27 00:51:06;;;;;;;12.75;6.85;;;;;;;7.80;100.00;100844.00;4989208;28;20070;-77
2021/03/27 00:53:42;;;;;;;10.43;7.03;;;;;;;7.82;100.00;100857.28;4970607;28;20674;-76
2021/03/27 00:56:27;;;;;;;9.68;5.85;;;;;;;7.65;100.00;100855.47;4969611;28;20021;-75
2021/03/27 00:59:02;;;;;;;9.18;4.97;;;;;;;7.73;100.00;100854.13;4978013;28;20052;-75
2021/03/27 01:01:38;;;;;;;8.85;5.05;;;;;;;7.71;100.00;100850.66;4969851;28;20372;-76
2021/03/27 01:04:28;;;;;;;5.05;3.53;;;;;;;7.62;100.00;100860.97;4990093;28;20127;-76
2021/03/27 01:07:14;;;;;;;6.82;3.25;;;;;;;7.62;100.00;100855.63;4974104;28;20061;-76
2021/03/27 01:10:08;;;;;;;10.73;3.60;;;;;;;7.70;100.00;100854.31;4985952;28;20056;-76
2021/03/27 01:12:55;;;;;;;4.68;2.35;;;;;;;7.54;100.00;100863.13;4978070;28;20520;-77
2021/03/27 01:15:26;;;;;;;6.57;2.33;;;;;;;7.52;100.00;100865.03;4990011;28;20034;-77
2021/03/27 01:17:56;;;;;;;6.95;2.35;;;;;;;7.47;100.00;100865.25;4972835;28;20522;-75
2021/03/27 01:20:26;;;;;;;9.90;3.08;;;;;;;7.44;100.00;100877.91;4974513;28;20085;-76
2021/03/27 01:22:53;;;;;;;6.53;2.40;;;;;;;7.38;100.00;100867.53;4989972;28;20531;-76
2021/03/27 01:25:29;;;;;;;4.72;2.05;;;;;;;7.47;100.00;100851.91;4992167;28;20512;-77
2021/03/27 01:28:00;;;;;;;9.45;1.83;;;;;;;7.48;100.00;100850.09;4990583;28;20034;-75
2021/03/27 01:30:39;;;;;;;4.18;1.40;;;;;;;7.38;100.00;100854.16;4986968;28;20033;-77
2021/03/27 01:33:22;;;;;;;8.20;1.92;;;;;;;7.42;100.00;100861.94;4986711;28;20038;-76
2021/03/27 01:36:05;;;;;;;7.35;1.85;;;;;;;7.30;100.00;100870.56;4991074;28;20691;-76
2021/03/27 01:38:39;;;;;;;6.70;1.75;;;;;;;7.34;100.00;100866.81;4968455;28;20038;-76
2021/03/27 01:41:35;;;;;;;4.85;1.50;;;;;;;7.40;100.00;100860.31;4967390;28;20038;-77
2021/03/27 01:44:34;;;;;;;17.00;3.58;;;;;;;7.26;100.00;100859.16;4966304;28;20038;-76
2021/03/27 01:47:07;;;;;;;10.02;1.50;;;;;;;7.29;100.00;100863.47;4987663;28;20534;-76
2021/03/27 01:49:49;;;;;;;8.02;1.30;;;;;;;7.16;100.00;100871.22;4984535;28;20065;-77
2021/03/27 01:52:39;;;;;;;5.88;1.40;;;;;;;7.14;100.00;100881.13;4983605;28;20038;-76
2021/03/27 01:55:26;;;;;;;8.95;1.33;;;;;;;7.09;100.00;100874.25;4993137;28;20523;-75
2021/03/27 01:58:00;;;;;;;6.43;1.67;;;;;;;7.08;100.00;100884.06;4977455;28;20041;-76
2021/03/27 02:00:36;;;;;;;6.35;1.75;;;;;;;7.10;100.00;100873.31;4991792;28;20053;-76
2021/03/27 02:03:11;;;;;;;9.32;1.75;;;;;;;7.04;100.00;100885.13;4987138;28;20036;-76
2021/03/27 02:05:44;;;;;;;5.25;1.70;;;;;;;7.07;100.00;100895.69;4980513;28;20073;-76
2021/03/27 02:08:19;;;;;;;;;;;;;;;7.04;100.00;100898.47;4992044;28;20038;-76
2021/03/27 02:11:08;;;;;;;7.78;1.85;;;;;;;6.96;100.00;100883.78;4990279;28;19921;-77
2021/03/27 02:13:33;;;;;;;7.60;2.03;;;;;;;6.97;100.00;100877.50;4976014;28;20380;-76
2021/03/27 02:16:07;;;;;;;11.18;1.80;;;;;;;6.89;100.00;100880.53;4971257;28;20092;-76
2021/03/27 02:18:45;;;;;;;12.10;2.00;;;;;;;6.98;100.00;100880.09;4987147;28;20105;-77
2021/03/27 02:21:25;;;;;;;6.88;1.80;;;;;;;6.88;100.00;100890.34;4975729;28;20121;-76
2021/03/27 02:24:05;;;;;;;7.25;1.67;;;;;;;7.00;100.00;100896.91;4972304;28;20030;-77
2021/03/27 02:26:49;;;;;;;7.35;1.60;;;;;;;6.84;100.00;100882.56;4979647;28;20093;-76
2021/03/27 02:29:29;;;;;;;6.82;1.73;;;;;;;6.79;100.00;100892.56;4988488;28;20034;-76
2021/03/27 02:32:18;;;;;;;7.68;2.10;;;;;;;6.85;100.00;100890.47;4987775;28;20037;-76
2021/03/27 02:35:08;;;;;;;8.60;2.28;;;;;;;6.74;100.00;100898.09;4987744;28;20026;-76
2021/03/27 02:37:38;;;;;;;5.68;1.77;;;;;;;6.81;100.00;100893.34;4991376;28;20058;-76
2021/03/27 02:40:12;;;;;;;8.68;2.15;;;;;;;6.81;100.00;100898.69;4957310;28;20034;-76
2021/03/27 02:43:02;;;;;;;12.00;2.47;;;;;;;6.79;100.00;100917.44;4987750;28;20514;-76
2021/03/27 02:46:09;;;;;;;6.47;2.00;;;;;;;6.79;100.00;100921.91;4984358;28;20042;-76
2021/03/27 02:49:19;;;;;;;14.20;2.50;;;;;;;6.81;100.00;100922.69;4951169;28;20031;-75
2021/03/27 02:52:02;;;;;;;11.80;2.30;;;;;;;6.70;100.00;100931.19;4965346;28;20037;-76
2021/03/27 02:54:31;;;;;;;13.88;2.50;;;;;;;6.73;100.00;100939.03;4988960;28;20030;-76
2021/03/27 02:57:02;;;;;;;6.82;2.38;;;;;;;6.78;100.00;100944.19;4973769;28;20443;-76
2021/03/27 02:59:46;;;;;;;10.15;2.95;;;;;;;6.73;100.00;100940.84;4987111;28;20064;-76
2021/03/27 03:02:19;;;;;;;8.73;2.65;;;;;;;6.71;100.00;100950.75;4992428;28;20029;-76
2021/03/27 03:04:48;;;;;;;8.38;2.35;;;;;;;6.64;100.00;100954.59;4981770;28;20041;-75
2021/03/27 03:07:30;;;;;;;6.43;2.60;;;;;;;6.71;100.00;100956.06;4985580;28;20606;-75
2021/03/27 03:10:22;;;;;;;9.55;2.95;;;;;;;6.72;100.00;100963.16;4974997;28;20848;-76
2021/03/27 03:13:05;;;;;;;9.13;2.60;;;;;;;6.78;100.00;100968.22;4998493;28;20117;-75
2021/03/27 03:15:42;;;;;;;8.98;2.63;;;;;;;6.73;100.00;100959.53;4990402;28;20034;-76
2021/03/27 03:18:21;;;;;;;12.68;2.90;;;;;;;6.77;100.00;100964.69;4967653;28;20042;-75
2021/03/27 03:20:57;;;;;;;10.82;3.28;;;;;;;6.62;100.00;100962.66;4962503;28;20037;-76
2021/03/27 03:23:35;;;;;;;16.83;4.20;;;;;;;6.66;100.00;100963.41;4990076;28;20077;-76
2021/03/27 03:26:09;;;;;;;14.02;3.75;;;;;;;6.65;100.00;100962.56;4993474;28;20128;-76
2021/03/27 03:28:58;;;;;;;18.50;4.43;;;;;;;6.64;100.00;100965.28;4988338;28;20158;-76
2021/03/27 03:31:40;;;;;;;17.20;4.97;;;;;;;6.60;100.00;100979.69;4976109;28;20093;-76
2021/03/27 03:34:31;;;;;;;11.93;3.65;;;;;;;6.56;100.00;100978.94;4988682;28;20054;-76
2021/03/27 03:37:21;;;;;;;10.48;4.05;;;;;;;6.50;100.00;100977.41;4983792;28;20072;-76
2021/03/27 03:40:16;;;;;;;13.88;4.35;;;;;;;6.55;100.00;100997.66;4974291;28;20042;-76
2021/03/27 03:42:56;;;;;;;11.25;5.00;;;;;;;6.54;100.00;100985.28;4980569;28;20138;-76
2021/03/27 03:45:42;;;;;;;20.88;4.20;;;;;;;6.53;100.00;100988.88;4985442;28;20047;-76
2021/03/27 03:48:40;;;;;;;16.48;4.05;;;;;;;6.56;100.00;101005.59;4969266;28;20090;-76
2021/03/27 03:51:35;;;;;;;11.30;3.85;;;;;;;6.59;100.00;100993.97;4969727;28;20034;-75
2021/03/27 03:54:14;;;;;;;15.55;4.15;;;;;;;6.47;100.00;101001.56;4976934;28;20057;-76
2021/03/27 03:56:57;;;;;;;16.35;6.35;;;;;;;6.57;100.00;101001.16;4963749;28;20037;-76
2021/03/27 03:59:25;;;;;;;;;;;;;;;6.48;100.00;101003.28;4962247;28;20578;-76
2021/03/27 04:01:57;;;;;;;14.70;4.32;;;;;;;6.49;100.00;101001.47;4984502;28;19913;-76
2021/03/27 04:04:29;;;;;;;13.13;3.08;;;;;;;6.44;100.00;100996.34;4973770;28;20052;-76
2021/03/27 04:07:02;;;;;;;10.77;2.75;;;;;;;6.46;100.00;100997.16;4973377;28;20038;-76
2021/03/27 04:09:44;;;;;;;7.90;3.03;;;;;;;6.45;100.00;100994.53;4986887;28;20038;-76
2021/03/27 04:12:12;;;;;;;9.55;3.22;;;;;;;6.46;100.00;100996.28;4989711;28;20038;-76
2021/03/27 04:14:56;;;;;;;10.73;2.85;;;;;;;6.40;100.00;101005.41;4973205;28;20034;-76
2021/03/27 04:17:52;;;;;;;16.88;2.90;;;;;;;6.33;100.00;101003.94;4984012;28;20042;-76
2021/03/27 04:20:32;;;;;;;14.40;3.70;;;;;;;6.40;100.00;101005.41;4987093;28;20029;-76
2021/03/27 04:23:09;;;;;;;15.07;2.80;;;;;;;6.41;100.00;101007.16;4971157;28;20491;-76
2021/03/27 04:26:09;;;;;;;6.25;2.72;;;;;;;6.30;100.00;101012.03;4981059;28;20034;-75
2021/03/27 04:28:40;;;;;;;10.77;2.60;;;;;;;6.29;100.00;101002.34;4985267;28;20045;-76
2021/03/27 04:31:36;;;;;;;8.27;2.72;;;;;;;6.35;100.00;101011.88;4991158;28;20069;-76
2021/03/27 04:34:26;;;;;;;19.02;2.95;;;;;;;6.21;100.00;101009.78;4969576;28;20767;-76
2021/03/27 04:37:06;;;;;;;10.88;3.65;;;;;;;6.33;100.00;101017.28;4983631;28;20116;-76
2021/03/27 04:39:49;;;;;;;9.02;2.90;;;;;;;6.23;100.00;101026.59;4972135;28;20034;-76
2021/03/27 04:42:23;;;;;;;11.75;2.58;;;;;;;6.29;100.00;101026.34;4986489;28;20479;-76
2021/03/27 04:45:02;;;;;;;15.63;2.78;;;;;;;6.26;100.00;101030.91;4978276;28;20034;-75
2021/03/27 04:47:32;;;;;;;15.15;2.70;;;;;;;6.27;99.90;101036.19;4966382;28;20088;-74
2021/03/27 04:50:21;;;;;;;11.02;2.63;;;;;;;6.30;99.82;101046.72;4985229;28;20097;-76
2021/03/27 04:53:16;;;;;;;10.15;2.55;;;;;;;6.23;99.87;101049.72;4971773;28;20033;-75
2021/03/27 04:56:00;;;;;;;19.88;3.63;;;;;;;6.21;99.89;101063.09;4973412;28;20030;-75
2021/03/27 04:58:51;;;;;;;9.60;2.25;;;;;;;6.25;100.00;101056.69;4989361;28;20117;-75
2021/03/27 05:01:20;;;;;;;16.63;2.10;;;;;;;6.26;99.67;101058.44;4981582;28;20038;-75
2021/03/27 05:04:07;;;;;;;12.38;2.33;;;;;;;6.25;100.00;101070.03;4986998;28;20026;-75
2021/03/27 05:06:33;;;;;;;15.43;2.63;;;;;;;6.27;99.51;101062.84;4980022;28;20475;-75
2021/03/27 05:09:26;;;;;;;16.55;2.25;;;;;;;6.30;99.21;101062.69;4962338;28;20057;-76
2021/03/27 05:12:15;;;;;;;12.25;2.90;;;;;;;6.27;99.53;101057.50;4972508;28;20038;-75
2021/03/27 05:14:53;;;;;;;13.85;3.03;;;;;;;6.38;99.17;101065.06;4984404;28;20030;-75
2021/03/27 05:17:22;;;;;;;14.70;3.50;;;;;;;6.39;99.13;101066.78;4988005;28;20125;-76
2021/03/27 05:20:15;;;;;;;13.82;2.20;;;;;;;6.41;99.30;101067.63;4965637;28;20041;-75
2021/03/27 05:22:50;;;;;;;19.60;2.90;;;;;;;6.40;99.22;101072.06;4982974;28;20042;-75
2021/03/27 05:25:31;;;;;;;15.40;2.63;;;;;;;6.38;99.27;101065.94;4967452;28;20026;-76
2021/03/27 05:28:05;;;;;;;13.00;3.25;;;;;;;6.47;98.63;101070.88;4982153;28;20064;-76
2021/03/27 05:30:46;;;;;;;14.38;2.53;;;;;;;6.48;97.81;101072.59;4969621;28;20093;-75
2021/03/27 05:33:26;;;;;;;17.25;2.97;;;;;;;6.45;98.54;101077.22;4989428;28;20506;-75
2021/03/27 05:36:04;;;;;;;18.95;2.97;;;;;;;6.49;98.67;101082.34;4992873;28;20084;-75
2021/03/27 05:38:35;;;;;;;14.52;2.72;;;;;;;6.54;98.22;101081.31;4975419;28;20088;-75
2021/03/27 05:41:25;;;;;;;14.60;3.35;;;;;;;6.49;98.31;101094.81;4988480;28;20077;-75
2021/03/27 05:43:59;;;;;;;17.58;2.95;;;;;;;6.52;98.50;101093.81;4982173;28;20034;-76
2021/03/27 05:46:27;;;;;;;18.25;3.80;;;;;;;6.52;99.01;101093.81;4991023;28;20046;-75
2021/03/27 05:49:24;;;;;;;11.07;2.70;;;;;;;6.53;97.99;101095.56;4978392;28;20035;-76
2021/03/27 05:52:14;;;;;;;14.10;3.30;;;;;;;6.57;97.63;101097.16;4984359;28;20054;-75
2021/03/27 05:55:17;;;;;;;10.93;3.55;;;;;;;6.70;97.91;101099.25;5000607;28;20037;-76
2021/03/27 05:58:04;;;;;;;17.65;4.28;;;;;;;6.76;97.33;101100.78;4989533;28;20037;-76
2021/03/27 06:00:48;;;;;;;21.08;6.35;;;;;;;6.79;96.92;101116.66;4979718;28;20285;-76
2021/03/27 06:04:02;;;;;;;14.30;4.30;;;;;;;6.91;96.80;101116.16;4975785;28;20449;-75
2021/03/27 06:06:36;;;;;;;24.95;6.38;;;;;;;7.00;96.61;101118.41;4923920;28;20048;-76
2021/03/27 06:09:19;;;;;;;14.45;5.05;;;;;;;6.98;96.46;101124.75;4970807;28;20033;-76
2021/03/27 06:11:47;;;;;;;14.98;3.30;;;;;;;7.08;95.82;101124.31;4983734;28;20553;-75
2021/03/27 06:14:31;;;;;;;12.18;3.63;;;;;;;7.13;95.99;101137.44;4979644;28;20399;-76
2021/03/27 06:17:15;;;;;;;13.43;3.10;;;;;;;7.01;98.10;101125.50;4986515;28;20487;-75
2021/03/27 06:20:06;;;;;;;13.02;3.47;;;;;;;7.07;98.70;101130.56;4991630;28;20026;-76
2021/03/27 06:22:37;;;;;;;13.75;3.40;;;;;;;7.06;98.04;101138.63;4985607;28;20652;-75
2021/03/27 06:25:21;;;;;;;21.13;3.55;;;;;;;6.97;96.87;101145.25;4991347;28;20042;-77
2021/03/27 06:28:10;;;;;;;18.65;3.00;;;;;;;6.82;97.62;101137.88;4975490;28;20038;-74
2021/03/27 06:31:03;;;;;;;14.80;3.83;;;;;;;6.77;100.00;101142.56;4988818;28;20034;-75
2021/03/27 06:34:05;;;;;;;13.35;3.25;;;;;;;6.73;100.00;101151.59;4984539;28;20034;-74
2021/03/27 06:36:46;;;;;;;14.88;3.17;;;;;;;6.63;100.00;101155.59;4981329;28;20606;-75
2021/03/27 06:39:30;;;;;;;21.88;4.07;;;;;;;6.66;100.00;101166.13;4978144;28;20050;-76
2021/03/27 06:42:28;;;;;;;12.95;2.85;;;;;;;6.62;100.00;101169.84;4986310;28;20023;-75
2021/03/27 06:45:30;;;;;;;14.70;3.47;;;;;;;6.59;100.00;101176.19;4984603;28;20041;-76
2021/03/27 06:48:30;;;;;;;14.88;3.33;;;;;;;6.66;100.00;101174.16;4971638;28;20038;-74
2021/03/27 06:51:26;;;;;;;16.10;3.22;;;;;;;6.53;100.00;101181.78;4976674;28;20029;-76
2021/03/27 06:54:08;;;;;;;6.05;2.10;;;;;;;6.55;100.00;101185.22;4982945;28;20076;-76
2021/03/27 06:56:39;;;;;;;17.67;4.07;;;;;;;6.58;100.00;101200.25;4962417;28;20045;-76
2021/03/27 06:59:11;;;;;;;16.52;4.18;;;;;;;6.54;100.00;101202.19;4990300;28;20081;-75
2021/03/27 07:02:10;;;;;;;17.20;5.25;;;;;;;6.68;99.39;101206.94;4976593;28;20026;-76
2021/03/27 07:05:03;;;;;;;11.73;2.33;;;;;;;6.58;98.07;101208.25;4989966;28;20022;-75
2021/03/27 07:07:31;;;;;;;;;;;;;;;6.56;98.33;101213.63;4984773;28;20038;-76
2021/03/27 07:10:35;;;;;;;9.45;2.58;;;;;;;6.60;97.60;101225.06;4959249;28;19940;-76
2021/03/27 07:13:01;;;;;;;9.45;2.38;;;;;;;6.56;98.43;101226.09;4985984;28;20395;-76
2021/03/27 07:15:52;;;;;;;10.63;3.03;;;;;;;6.55;97.17;101232.34;4980870;28;20121;-76
2021/03/27 07:18:39;;;;;;;12.60;3.70;;;;;;;6.53;97.34;101239.56;4985276;28;20209;-76
2021/03/27 07:21:34;;;;;;;6.68;1.50;;;;;;;6.49;95.20;101250.34;4982711;28;20038;-75
2021/03/27 07:24:23;;;;;;;8.20;1.65;;;;;;;6.54;95.27;101251.97;4962422;28;20050;-74
2021/03/27 07:27:26;;;;;;;5.30;1.48;;;;;;;6.39;93.99;101270.31;4975874;28;20034;-75
2021/03/27 07:29:58;;;;;;;6.53;1.08;;;;;;;6.47;94.17;101262.03;4969754;28;20030;-75
2021/03/27 07:32:35;;;;;;;8.65;1.20;;;;;;;6.49;93.58;101271.69;4985467;28;20464;-75
2021/03/27 07:35:30;;;;;;;5.38;1.65;;;;;;;6.57;92.66;101274.06;4994110;28;20394;-76
2021/03/27 07:38:05;;;;;;;5.68;1.08;;;;;;;6.75;92.29;101269.78;4964087;28;20042;-76
2021/03/27 07:40:35;;;;;;;6.63;2.15;;;;;;;6.86;91.76;101275.56;4983045;28;20038;-76
2021/03/27 07:43:19;;;;;;;5.32;1.02;;;;;;;7.27;88.78;101284.56;4980472;28;20050;-74
2021/03/27 07:45:57;;;;;;;8.02;2.10;;;;;;;8.06;86.55;101278.44;4966034;28;20431;-76
2021/03/27 07:48:37;;;;;;;3.92;1.30;;;;;;;8.73;80.65;101270.84;4988154;28;20394;-76
2021/03/27 07:51:27;;;;;;;3.47;1.33;;;;;;;8.71;79.54;101280.75;4988172;28;20644;-74
2021/03/27 07:54:26;;;;;;;6.07;2.20;;;;;;;8.81;79.53;101282.06;4993207;28;20038;-75
2021/03/27 07:57:03;;;;;;;9.23;3.13;;;;;;;8.65;79.40;101299.78;4982609;28;20580;-74
2021/03/27 08:00:06;;;;;;;7.75;2.10;;;;;;;8.90;77.51;101305.72;4969821;28;20069;-74
2021/03/27 08:02:57;;;;;;;7.90;2.15;;;;;;;9.25;76.44;101327.25;4979953;28;20026;-77
2021/03/27 08:05:58;;;;;;;5.20;2.05;;;;;;;9.20;77.36;101323.91;4977380;28;20038;-76
2021/03/27 08:08:26;;;;;;;13.50;3.03;;;;;;;9.91;73.98;101339.06;4989311;28;20065;-75
2021/03/27 08:11:18;;;;;;;7.57;2.70;;;;;;;11.02;69.75;101338.41;4975073;28;20483;-75
2021/03/27 08:14:06;;;;;;;8.95;2.42;;;;;;;10.46;69.70;101339.72;4961846;28;20073;-75
2021/03/27 08:16:41;;;;;;;8.35;2.03;;;;;;;10.29;70.67;101350.50;4991321;28;20061;-76
2021/03/27 08:19:39;;;;;;;11.52;2.85;;;;;;;10.07;72.39;101356.06;4968247;28;20050;-76
2021/03/27 08:22:42;;;;;;;7.93;2.28;;;;;;;10.05;72.24;101358.00;4969371;28;20148;-76
2021/03/27 08:25:34;;;;;;;22.38;7.22;;;;;;;10.54;71.08;101375.09;4985942;28;20037;-76
2021/03/27 08:28:26;;;;;;;37.97;16.48;;;;;;;10.95;70.27;101377.31;4986103;28;20054;-76
2021/03/27 08:31:35;;;;;;;54.97;20.05;;;;;;;10.17;70.53;101372.59;4982334;28;20800;-76
2021/03/27 08:34:42;;;;;;;13.90;6.00;;;;;;;9.54;73.83;101376.72;4983290;28;20058;-76
2021/03/27 08:37:23;;;;;;;12.77;4.90;;;;;;;9.54;74.62;101388.31;4984476;28;20553;-76
2021/03/27 08:40:32;;;;;;;14.25;4.40;;;;;;;10.02;72.18;101394.81;4969824;28;20034;-76
2021/03/27 08:43:10;;;;;;;8.02;1.67;;;;;;;10.09;74.06;101390.88;4907129;29;20050;-76
2021/03/27 08:46:02;;;;;;;8.00;2.25;;;;;;;10.36;71.27;101393.97;4945345;28;20039;-76
2021/03/27 08:48:49;;;;;;;9.50;2.10;;;;;;;10.25;70.78;101402.56;4964035;28;20050;-76
2021/03/27 08:51:30;;;;;;;10.75;2.40;;;;;;;11.03;69.54;101407.31;4968087;28;20034;-76
2021/03/27 08:54:33;;;;;;;7.68;2.00;;;;;;;11.06;68.48;101415.19;4984201;28;20030;-76
2021/03/27 08:57:32;;;;;;;7.97;2.10;;;;;;;11.64;68.13;101426.22;4988795;28;20499;-77
2021/03/27 09:00:17;;;;;;;10.32;2.38;;;;;;;11.05;66.98;101421.50;4983501;28;20050;-76
2021/03/27 09:03:18;;;;;;;7.78;1.30;;;;;;;10.76;67.60;101419.56;4983302;28;20174;-76
2021/03/27 09:06:11;;;;;;;9.98;1.70;;;;;;;10.90;66.35;101423.22;4974946;28;20042;-76
2021/03/27 09:08:46;;;;;;;12.52;2.92;;;;;;;11.52;64.82;101432.31;4961407;28;20038;-76
2021/03/27 09:11:31;;;;;;;15.65;1.83;;;;;;;11.97;62.22;101427.97;4985412;28;20062;-75
2021/03/27 09:14:20;;;;;;;12.32;1.80;;;;;;;12.22;60.53;101432.75;4966707;28;20030;-75
2021/03/27 09:17:17;;;;;;;9.05;1.42;;;;;;;12.78;60.14;101432.81;4971824;28;20038;-76
2021/03/27 09:20:19;;;;;;;13.02;1.80;;;;;;;11.80;59.39;101428.06;4985063;28;20022;-76
2021/03/27 09:23:05;;;;;;;9.37;1.90;;;;;;;11.27;61.51;101427.44;4984069;28;20034;-77
2021/03/27 09:26:17;;;;;;;10.30;1.60;;;;;;;11.25;63.16;101437.41;4976005;28;20303;-76
2021/03/27 09:28:42;;;;;;;7.95;1.67;;;;;;;11.54;62.87;101446.50;4966886;28;20102;-76
2021/03/27 09:31:29;;;;;;;10.00;1.55;;;;;;;11.75;57.18;101445.34;4987870;28;20073;-76
2021/03/27 09:33:58;;;;;;;12.70;2.08;;;;;;;11.41;61.06;101448.19;4979903;28;20038;-76
2021/03/27 09:36:52;;;;;;;14.85;1.88;;;;;;;11.44;60.06;101455.19;4978884;28;20060;-76
2021/03/27 09:39:43;;;;;;;;;;;;;;;11.96;59.12;101451.31;4997084;28;20651;-74
2021/03/27 09:42:53;;;;;;;9.75;1.73;;;;;;;12.02;54.27;101464.41;4970987;28;19925;-76
2021/03/27 09:45:26;;;;;;;10.63;1.88;;;;;;;11.93;55.55;101459.53;4989371;28;20026;-75
2021/03/27 09:48:22;;;;;;;16.00;2.13;;;;;;;11.80;55.12;101471.09;4991319;28;20038;-76
2021/03/27 09:50:58;;;;;;;22.23;2.17;;;;;;;11.86;56.77;101468.91;4990446;28;20046;-76
2021/03/27 09:53:43;;;;;;;11.55;2.25;;;;;;;11.85;56.75;101459.09;4989654;28;20038;-76
2021/03/27 09:56:18;;;;;;;12.15;1.80;;;;;;;11.92;53.08;101473.06;4998090;28;20057;-76
2021/03/27 09:58:56;;;;;;;9.15;1.60;;;;;;;12.10;54.00;101477.38;4975980;28;20061;-74
2021/03/27 10:01:45;;;;;;;10.68;1.50;;;;;;;12.30;53.08;101473.50;4999777;28;21302;-74
2021/03/27 10:04:21;;;;;;;10.55;1.77;;;;;;;12.28;52.41;101478.16;4995978;28;20042;-75
2021/03/27 10:07:11;;;;;;;10.68;2.67;;;;;;;11.67;54.00;101484.31;4990776;28;20046;-76
2021/03/27 10:09:36;;;;;;;8.70;2.60;;;;;;;11.23;54.22;101495.75;4988803;28;20134;-76
2021/03/27 10:12:14;;;;;;;8.32;1.80;;;;;;;11.37;55.21;101484.22;4990842;28;20472;-76
2021/03/27 10:15:01;;;;;;;9.43;2.28;;;;;;;11.11;53.47;101485.66;4996033;28;20421;-74
2021/03/27 10:17:26;;;;;;;15.57;1.98;;;;;;;11.31;53.25;101482.75;4986201;28;20038;-76
2021/03/27 10:20:29;;;;;;;8.15;1.60;;;;;;;11.03;51.36;101481.66;4952412;28;20558;-73
2021/03/27 10:22:57;;;;;;;11.45;1.65;;;;;;;10.51;54.22;101501.41;4985175;28;20049;-74
2021/03/27 10:25:36;;;;;;;14.05;2.70;;;;;;;10.59;56.01;101498.31;4971033;28;20058;-76
2021/03/27 10:28:23;;;;;;;10.55;1.80;;;;;;;10.57;56.11;101512.75;4968888;28;20509;-77
2021/03/27 10:30:56;;;;;;;15.38;1.95;;;;;;;10.51;57.44;101506.75;4974480;28;20089;-75
2021/03/27 10:33:40;;;;;;;16.63;2.78;;;;;;;10.49;60.80;101538.16;4997796;28;20089;-75
2021/03/27 10:36:21;;;;;;;14.68;1.77;;;;;;;9.96;64.85;101521.19;4990397;28;20045;-75
2021/03/27 10:38:59;;;;;;;6.97;1.92;;;;;;;9.66;68.04;101516.38;4985455;28;20035;-72
2021/03/27 10:41:39;;;;;;;15.40;2.97;;;;;;;9.77;66.70;101533.72;4978968;28;20165;-74
2021/03/27 10:44:08;;;;;;;14.27;2.05;;;;;;;9.72;63.96;101516.06;4991296;28;20026;-75
2021/03/27 10:46:44;;;;;;;6.25;1.65;;;;;;;9.97;64.41;101522.91;4986572;28;20089;-75
2021/03/27 10:49:10;;;;;;;9.32;2.20;;;;;;;10.45;62.64;101528.53;4978427;28;20036;-76
2021/03/27 10:52:15;;;;;;;16.42;2.38;;;;;;;10.83;59.08;101544.50;4979108;28;20034;-74
2021/03/27 10:55:04;;;;;;;8.55;1.80;;;;;;;11.23;56.83;101560.22;4989748;28;20038;-75
2021/03/27 10:58:00;;;;;;;6.65;2.20;;;;;;;11.06;53.12;101560.28;4964595;28;20042;-74
2021/03/27 11:00:35;;;;;;;6.03;1.40;;;;;;;10.92;51.59;101566.38;4990450;28;20707;-75
2021/03/27 11:03:04;;;;;;;11.65;2.15;;;;;;;10.95;53.18;101576.97;4973034;28;20042;-74
2021/03/27 11:05:58;;;;;;;10.45;2.13;;;;;;;10.63;51.95;101574.19;4976232;28;20034;-75
2021/03/27 11:08:38;;;;;;;11.40;1.65;;;;;;;10.64;51.95;101581.31;4985253;28;20045;-77
2021/03/27 11:11:26;;;;;;;9.45;1.55;;;;;;;10.48;52.42;101587.47;4968913;28;20035;-75
2021/03/27 11:13:58;;;;;;;5.82;1.45;;;;;;;10.53;54.01;101580.03;4982119;28;20061;-75
2021/03/27 11:16:43;;;;;;;12.07;2.00;;;;;;;11.14;56.87;101587.63;4955078;28;20068;-76
2021/03/27 11:19:23;;;;;;;13.00;1.92;;;;;;;10.91;52.96;101585.28;4990945;28;20792;-76
2021/03/27 11:22:06;;;;;;;13.05;3.20;;;;;;;10.49;52.50;101599.06;4987189;28;20038;-75
2021/03/27 11:24:56;;;;;;;10.25;1.40;;;;;;;10.35;53.01;101607.81;4984409;28;20048;-76
2021/03/27 11:27:37;;;;;;;9.18;2.38;;;;;;;10.51;53.90;101608.78;4990411;28;20140;-74
2021/03/27 11:30:13;;;;;;;8.02;1.42;;;;;;;10.70;53.87;101626.63;4973515;28;20034;-76
2021/03/27 11:32:52;;;;;;;5.13;1.20;;;;;;;10.79;53.61;101634.25;4991299;28;20026;-76
2021/03/27 11:35:24;;;;;;;8.25;1.60;;;;;;;10.41;56.76;101638.84;4984702;28;20037;-76
2021/03/27 11:38:22;;;;;;;8.98;1.55;;;;;;;10.26;56.76;101648.50;4973840;28;20615;-75
2021/03/27 11:41:13;;;;;;;6.32;1.63;;;;;;;10.37;58.01;101648.81;4986105;28;20795;-76
2021/03/27 11:44:05;;;;;;;5.85;1.23;;;;;;;10.41;58.35;101633.47;4985151;28;20040;-76
2021/03/27 11:46:39;;;;;;;8.93;1.92;;;;;;;10.69;57.37;101641.00;4931573;28;20050;-76
2021/03/27 11:49:12;;;;;;;6.43;1.58;;;;;;;11.00;59.57;101643.00;4986627;28;20065;-76
2021/03/27 11:51:42;;;;;;;;;;;;;;;10.95;55.79;101656.69;4974873;28;20037;-76
2021/03/27 11:54:13;;;;;;;10.20;2.47;;;;;;;11.14;56.76;101641.34;4957776;28;19929;-78
2021/03/27 11:57:24;;;;;;;8.57;1.73;;;;;;;11.35;54.99;101644.75;4988350;28;20037;-77
2021/03/27 12:03:28;;;;;;;10.43;2.30;;;;;;;11.58;53.47;101640.81;4975912;28;20447;-76
2021/03/27 12:06:18;;;;;;;7.75;1.65;;;;;;;11.58;51.09;101649.75;4949780;28;20033;-75
2021/03/27 12:08:56;;;;;;;14.00;2.00;;;;;;;11.82;49.89;101646.72;4989310;28;20050;-77
2021/03/27 12:11:27;;;;;;;7.85;1.75;;;;;;;12.02;48.85;101663.53;4994224;28;20034;-79
2021/03/27 12:14:19;;;;;;;5.85;1.35;;;;;;;11.94;45.11;101660.38;4975884;28;20033;-74
2021/03/27 12:16:57;;;;;;;8.80;1.45;;;;;;;11.99;45.91;101660.97;4974553;28;20054;-75
2021/03/27 12:19:36;;;;;;;4.25;1.17;;;;;;;11.94;43.84;101665.75;4971543;28;20050;-75
2021/03/27 12:22:19;;;;;;;8.98;1.40;;;;;;;11.90;43.75;101680.34;4987886;28;20085;-72
2021/03/27 12:24:51;;;;;;;8.77;1.40;;;;;;;11.60;44.30;101687.34;4966648;28;20062;-74
2021/03/27 12:27:23;;;;;;;6.28;1.25;;;;;;;11.70;42.99;101693.94;4971176;28;20181;-76
2021/03/27 12:30:00;;;;;;;10.13;2.33;;;;;;;11.87;44.24;101704.69;4986067;28;20038;-75
2021/03/27 12:32:54;;;;;;;5.30;1.70;;;;;;;12.06;46.16;101689.28;4987844;28;20065;-74
2021/03/27 12:35:41;;;;;;;5.88;1.65;;;;;;;12.08;44.65;101695.47;4977636;28;20041;-75
2021/03/27 12:38:11;;;;;;;7.40;1.85;;;;;;;12.15;45.87;101698.69;4992536;28;20038;-76
2021/03/27 12:40:42;;;;;;;8.32;1.67;;;;;;;11.91;46.00;101706.25;4992873;28;20041;-76